Time;durP1;ratioP1;P1;durP2;ratioP2;P2;SDS_P1;SDS_P2;PMS_P1;PMS_P2;Temp;Humidity;BMP_temperature;BMP_pressure;BME280_temperature;BME280_humidity;BME280_pressure;Samples;Min_cycle;Max_cycle;Signal;HPM_P1;HPM_P2
2022/12/17 13:06:06;;;;;;;142.98;64.10;;;;;;;;;;1039839;28;20219;-78
2022/12/17 13:06:44;;;;;;;156.50;64.25;;;;;;;;;;1040590;28;20428;-79
2022/12/17 13:07:26;;;;;;;140.38;60.22;;;;;;;;;;1039621;28;20560;-79
2022/12/17 13:08:09;;;;;;;137.70;63.28;;;;;;;;;;1039301;28;20021;-78
2022/12/17 13:08:39;;;;;;;152.85;65.50;;;;;;;;;;1039814;28;20048;-78
2022/12/17 13:09:16;;;;;;;155.13;68.50;;;;;;;;;;1040388;28;20059;-78
2022/12/17 13:09:49;;;;;;;154.35;69.00;;;;;;;;;;1037769;28;20389;-78
2022/12/17 13:10:29;;;;;;;170.10;71.80;;;;;;;;;;1034053;28;20022;-79
2022/12/17 13:10:59;;;;;;;;;;;;;;;;;;1032509;28;20403;-78
2022/12/17 13:11:36;;;;;;;278.10;118.82;;;;;;;;;;1034941;28;19917;-79
2022/12/17 13:12:09;;;;;;;261.73;115.47;;;;;;;;;;1037600;28;20128;-78
2022/12/17 13:12:44;;;;;;;275.25;119.15;;;;;;;;;;1040601;28;20385;-79
2022/12/17 13:13:14;;;;;;;285.98;123.43;;;;;;;;;;1039743;28;20071;-79
2022/12/17 13:13:54;;;;;;;324.05;133.32;;;;;;;;;;1040687;28;20068;-79
2022/12/17 13:14:28;;;;;;;301.67;130.27;;;;;;;;;;1040388;28;20036;-78
2022/12/17 13:15:04;;;;;;;304.08;134.85;;;;;;;;;;1040506;28;20083;-79
2022/12/17 13:15:39;;;;;;;282.52;128.25;;;;;;;;;;1040373;28;20029;-79
2022/12/17 13:16:25;;;;;;;302.65;135.45;;;;;;;;;;1040536;28;20021;-79
2022/12/17 13:17:04;;;;;;;278.88;121.93;;;;;;;;;;1035819;28;20049;-79
2022/12/17 13:17:40;;;;;;;246.85;109.47;;;;;;;;;;1035939;28;20421;-79
2022/12/17 13:18:31;;;;;;;226.00;105.40;;;;;;;;;;1035706;28;20034;-79
2022/12/17 13:19:17;;;;;;;259.88;110.28;;;;;;;;;;1033577;28;20033;-79
2022/12/17 13:19:56;;;;;;;280.23;113.28;;;;;;;;;;1032669;28;20438;-79
2022/12/17 13:20:29;;;;;;;290.88;126.30;;;;;;;;;;1032253;28;20054;-79
2022/12/17 13:21:04;;;;;;;274.38;121.88;;;;;;;;;;1036481;28;20033;-79
2022/12/17 13:21:35;;;;;;;264.50;119.43;;;;;;;;;;1034102;28;20464;-79
2022/12/17 13:22:14;;;;;;;302.40;134.50;;;;;;;;;;1034618;28;20022;-78
2022/12/17 13:22:50;;;;;;;280.25;124.50;;;;;;;;;;1032976;28;20483;-79
2022/12/17 13:23:26;;;;;;;283.38;129.30;;;;;;;;;;1033794;28;20032;-79
2022/12/17 13:23:57;;;;;;;300.95;133.75;;;;;;;;;;1035826;28;20466;-78
2022/12/17 13:24:28;;;;;;;319.13;134.20;;;;;;;;;;1036139;28;20025;-77
2022/12/17 13:25:14;;;;;;;292.95;130.68;;;;;;;;;;1036928;28;20121;-77
2022/12/17 13:25:45;;;;;;;282.00;121.40;;;;;;;;;;1040164;28;20516;-79
2022/12/17 13:26:17;;;;;;;280.45;123.20;;;;;;;;;;1040465;28;20025;-79
2022/12/17 13:26:48;;;;;;;271.40;120.68;;;;;;;;;;1040356;28;20147;-79
2022/12/17 13:27:44;;;;;;;266.60;120.18;;;;;;;;;;1035849;28;20022;-79
2022/12/17 13:28:28;;;;;;;256.15;111.22;;;;;;;;;;1030549;28;20030;-78
2022/12/17 13:29:09;;;;;;;255.48;114.93;;;;;;;;;;1031774;28;20026;-80
2022/12/17 13:29:39;;;;;;;264.42;110.53;;;;;;;;;;1028884;28;20065;-79
2022/12/17 13:30:30;;;;;;;282.45;115.50;;;;;;;;;;1029497;28;20022;-80
2022/12/17 13:31:02;;;;;;;271.25;111.10;;;;;;;;;;1034939;28;20030;-79
2022/12/17 13:31:44;;;;;;;261.98;115.10;;;;;;;;;;1035802;28;20018;-80
2022/12/17 13:32:20;;;;;;;260.60;108.85;;;;;;;;;;1040253;28;20116;-80
2022/12/17 13:33:01;;;;;;;257.00;110.18;;;;;;;;;;1035929;28;20022;-79
2022/12/17 13:33:43;;;;;;;246.60;110.45;;;;;;;;;;1035920;28;20029;-79
2022/12/17 13:34:13;;;;;;;255.63;109.70;;;;;;;;;;1036008;28;20388;-80
2022/12/17 13:34:55;;;;;;;261.92;113.10;;;;;;;;;;1034857;28;20030;-79
2022/12/17 13:35:39;;;;;;;233.50;101.88;;;;;;;;;;1031569;28;20022;-79
2022/12/17 13:36:10;;;;;;;234.77;101.68;;;;;;;;;;1030928;28;20066;-80
2022/12/17 13:36:49;;;;;;;207.15;92.55;;;;;;;;;;1035304;28;20033;-80
2022/12/17 13:37:31;;;;;;;168.65;81.55;;;;;;;;;;1035525;28;20013;-80
2022/12/17 13:38:13;;;;;;;164.18;67.82;;;;;;;;;;1033821;28;20034;-79
2022/12/17 13:38:49;;;;;;;137.50;66.13;;;;;;;;;;1036067;28;20021;-80
2022/12/17 13:39:20;;;;;;;114.35;53.53;;;;;;;;;;1031826;28;20037;-79
2022/12/17 13:39:53;;;;;;;119.50;49.78;;;;;;;;;;1034031;28;20037;-80
2022/12/17 13:40:42;;;;;;;115.68;48.88;;;;;;;;;;1033291;28;20018;-80
2022/12/17 13:41:12;;;;;;;114.82;49.22;;;;;;;;;;1035025;28;20756;-79
2022/12/17 13:41:43;;;;;;;119.20;54.45;;;;;;;;;;1038058;28;20052;-79
2022/12/17 13:42:33;;;;;;;121.07;56.17;;;;;;;;;;1036578;28;20018;-80
2022/12/17 13:43:04;;;;;;;130.40;52.63;;;;;;;;;;1036892;28;20109;-80
2022/12/17 13:43:57;;;;;;;133.20;55.42;;;;;;;;;;1036757;28;20033;-79
2022/12/17 13:44:34;;;;;;;124.10;54.15;;;;;;;;;;1032482;28;20014;-80
2022/12/17 13:45:05;;;;;;;149.48;58.90;;;;;;;;;;1036024;28;20032;-80
2022/12/17 13:45:36;;;;;;;144.70;58.90;;;;;;;;;;1034807;28;20449;-80
2022/12/17 13:46:15;;;;;;;125.88;56.97;;;;;;;;;;1031579;28;20202;-80
2022/12/17 13:46:47;;;;;;;143.90;59.22;;;;;;;;;;1033244;28;20026;-79
2022/12/17 13:47:19;;;;;;;142.15;59.75;;;;;;;;;;1036035;28;20033;-80
2022/12/17 13:47:54;;;;;;;139.15;58.88;;;;;;;;;;1036474;28;20433;-79
2022/12/17 13:48:26;;;;;;;135.15;56.63;;;;;;;;;;1039693;28;20079;-79
2022/12/17 13:48:58;;;;;;;155.50;66.53;;;;;;;;;;1035878;28;20176;-79
2022/12/17 13:49:29;;;;;;;172.10;71.50;;;;;;;;;;1034745;28;20040;-80
2022/12/17 13:50:01;;;;;;;156.73;66.00;;;;;;;;;;1035762;28;21246;-79
2022/12/17 13:50:32;;;;;;;173.05;70.30;;;;;;;;;;1031909;28;20406;-79
2022/12/17 13:51:04;;;;;;;157.75;65.80;;;;;;;;;;1032272;28;20058;-80
2022/12/17 13:51:34;;;;;;;174.43;77.07;;;;;;;;;;1035980;28;20056;-80
2022/12/17 13:52:05;;;;;;;171.75;73.65;;;;;;;;;;1036047;28;20033;-79
2022/12/17 13:52:35;;;;;;;192.88;75.88;;;;;;;;;;1040553;28;20469;-79
2022/12/17 13:53:10;;;;;;;165.00;72.80;;;;;;;;;;1035837;28;20056;-79
2022/12/17 13:53:50;;;;;;;152.82;66.70;;;;;;;;;;1035745;28;20165;-77
2022/12/17 13:54:21;;;;;;;160.18;67.15;;;;;;;;;;1035786;28;20072;-77
2022/12/17 13:54:52;;;;;;;164.68;69.25;;;;;;;;;;1038012;28;20040;-78
2022/12/17 13:55:25;;;;;;;158.68;70.65;;;;;;;;;;1040162;28;20028;-79
2022/12/17 13:55:56;;;;;;;163.80;69.25;;;;;;;;;;1035677;28;20559;-79
2022/12/17 13:56:28;;;;;;;191.80;79.93;;;;;;;;;;1036038;28;20025;-80
2022/12/17 13:57:09;;;;;;;208.32;81.22;;;;;;;;;;1032879;28;20018;-80
2022/12/17 13:57:44;;;;;;;195.40;79.13;;;;;;;;;;1034672;28;20034;-80
2022/12/17 13:58:30;;;;;;;172.60;78.15;;;;;;;;;;1035063;28;20033;-80
2022/12/17 13:59:02;;;;;;;196.00;78.45;;;;;;;;;;1040022;28;20023;-80
2022/12/17 13:59:32;;;;;;;187.18;81.90;;;;;;;;;;1035751;28;20603;-80
2022/12/17 14:00:03;;;;;;;209.73;87.13;;;;;;;;;;1032785;28;20113;-79
2022/12/17 14:00:34;;;;;;;180.95;77.75;;;;;;;;;;1032253;28;20033;-79
2022/12/17 14:01:11;;;;;;;195.15;80.30;;;;;;;;;;1031665;28;20090;-79
2022/12/17 14:01:45;;;;;;;190.88;81.55;;;;;;;;;;1032720;28;20068;-79
2022/12/17 14:02:26;;;;;;;192.43;77.93;;;;;;;;;;1056179;23;20022;-76
2022/12/17 14:02:56;;;;;;;190.00;76.07;;;;;;;;;;1050954;28;20016;-76
2022/12/17 14:03:27;;;;;;;188.65;80.30;;;;;;;;;;1052459;28;20107;-76
2022/12/17 14:03:59;;;;;;;208.57;86.15;;;;;;;;;;1052354;28;20077;-76
2022/12/17 14:04:30;;;;;;;188.43;81.13;;;;;;;;;;1051686;28;20015;-76
2022/12/17 14:05:02;;;;;;;209.63;86.57;;;;;;;;;;1047299;28;20059;-76
2022/12/17 14:05:40;;;;;;;185.57;83.10;;;;;;;;;;1043808;28;20059;-76
2022/12/17 14:06:11;;;;;;;188.07;79.60;;;;;;;;;;1041899;28;20027;-76
2022/12/17 14:06:42;;;;;;;176.23;77.35;;;;;;;;;;1038986;28;20077;-76
2022/12/17 14:07:12;;;;;;;182.07;75.60;;;;;;;;;;1040294;28;20022;-76
2022/12/17 14:07:43;;;;;;;184.98;78.15;;;;;;;;;;1042016;28;20169;-76
2022/12/17 14:08:17;;;;;;;182.32;76.00;;;;;;;;;;1039845;28;20390;-76
2022/12/17 14:08:49;;;;;;;167.93;70.68;;;;;;;;;;1043250;28;20031;-76
2022/12/17 14:09:20;;;;;;;159.93;71.55;;;;;;;;;;1042933;28;20071;-76
2022/12/17 14:09:51;;;;;;;177.52;76.82;;;;;;;;;;1044564;28;20442;-76
2022/12/17 14:10:22;;;;;;;165.63;68.70;;;;;;;;;;1048476;28;20086;-76
2022/12/17 14:12:20;;;;;;;155.48;70.00;;;;;;;;;;1048495;28;20482;-76
2022/12/17 14:12:34;;;;;;;170.20;74.55;;;;;;;;;;1047504;28;20033;-76
2022/12/17 14:13:06;;;;;;;172.23;76.10;;;;;;;;;;1047330;28;20032;-76
2022/12/17 14:13:37;;;;;;;165.40;73.18;;;;;;;;;;1047128;28;20021;-76
2022/12/17 14:14:27;;;;;;;183.27;78.22;;;;;;;;;;1048076;28;20031;-76
2022/12/17 14:14:58;;;;;;;179.05;69.60;;;;;;;;;;1047463;28;20035;-76
2022/12/17 14:15:30;;;;;;;169.45;75.70;;;;;;;;;;1043104;28;20017;-76
2022/12/17 14:16:01;;;;;;;170.38;72.82;;;;;;;;;;1042533;28;20076;-76
2022/12/17 14:16:31;;;;;;;159.85;72.15;;;;;;;;;;1043941;28;20025;-76
2022/12/17 14:17:02;;;;;;;186.25;70.63;;;;;;;;;;1044225;28;20028;-76
2022/12/17 14:17:36;;;;;;;173.95;74.07;;;;;;;;;;1043667;28;20024;-75
2022/12/17 14:18:10;;;;;;;164.20;71.97;;;;;;;;;;1042868;28;20401;-76
2022/12/17 14:18:44;;;;;;;153.15;69.53;;;;;;;;;;1043339;28;20017;-76
2022/12/17 14:19:14;;;;;;;163.35;69.53;;;;;;;;;;1044641;28;20025;-76
2022/12/17 14:19:45;;;;;;;170.00;76.72;;;;;;;;;;1040820;28;20028;-76
2022/12/17 14:20:18;;;;;;;169.80;72.65;;;;;;;;;;1043069;28;20575;-76
2022/12/17 14:20:49;;;;;;;172.35;73.22;;;;;;;;;;1043808;28;20116;-76
2022/12/17 14:21:20;;;;;;;167.88;74.13;;;;;;;;;;1044491;28;20102;-76
2022/12/17 14:21:51;;;;;;;160.00;72.18;;;;;;;;;;1046983;28;20069;-76
2022/12/17 14:22:32;;;;;;;165.00;74.03;;;;;;;;;;1048171;28;20035;-76
2022/12/17 14:23:05;;;;;;;163.13;67.00;;;;;;;;;;1048020;28;20118;-76
2022/12/17 14:23:35;;;;;;;166.90;73.97;;;;;;;;;;1047302;28;20555;-76
2022/12/17 14:24:09;;;;;;;152.40;71.43;;;;;;;;;;1043575;28;20029;-76
2022/12/17 14:24:40;;;;;;;155.32;68.32;;;;;;;;;;1043228;28;20075;-76
2022/12/17 14:25:15;;;;;;;155.20;71.93;;;;;;;;;;1043790;28;20102;-76
2022/12/17 14:25:47;;;;;;;160.57;69.82;;;;;;;;;;1044008;28;20074;-76
2022/12/17 14:26:20;;;;;;;147.50;68.43;;;;;;;;;;1043824;28;20017;-76
2022/12/17 14:26:52;;;;;;;157.55;68.88;;;;;;;;;;1043979;28;20067;-76
2022/12/17 14:27:25;;;;;;;170.27;70.32;;;;;;;;;;1043834;28;20561;-76
2022/12/17 14:28:02;;;;;;;152.70;67.32;;;;;;;;;;1044456;28;20028;-77
2022/12/17 14:28:34;;;;;;;149.45;62.00;;;;;;;;;;1047711;28;20016;-76
2022/12/17 14:29:11;;;;;;;140.55;63.38;;;;;;;;;;1042779;28;20484;-76
2022/12/17 14:29:45;;;;;;;147.75;65.63;;;;;;;;;;1043115;28;20522;-76
2022/12/17 14:30:24;;;;;;;147.25;65.85;;;;;;;;;;1043847;28;20567;-76
2022/12/17 14:31:13;;;;;;;215.45;86.35;;;;;;;;;;1046674;28;20618;-76
2022/12/17 14:31:51;;;;;;;140.75;65.25;;;;;;;;;;1047137;28;20024;-76
2022/12/17 14:32:29;;;;;;;159.38;63.92;;;;;;;;;;1047977;28;20034;-76
2022/12/17 14:32:59;;;;;;;124.95;53.63;;;;;;;;;;1047542;28;20021;-76
2022/12/17 14:33:34;;;;;;;117.30;51.55;;;;;;;;;;1048256;28;20471;-76
2022/12/17 14:34:06;;;;;;;119.25;52.50;;;;;;;;;;1042597;28;20019;-76
2022/12/17 14:34:40;;;;;;;117.03;52.72;;;;;;;;;;1043850;28;20029;-76
2022/12/17 14:35:27;;;;;;;117.18;55.00;;;;;;;;;;1042866;28;20029;-76
2022/12/17 14:35:59;;;;;;;116.95;54.50;;;;;;;;;;1041719;28;20021;-76
2022/12/17 14:36:30;;;;;;;123.60;55.55;;;;;;;;;;1043949;28;20484;-76
2022/12/17 14:37:00;;;;;;;143.57;63.10;;;;;;;;;;1043858;28;20025;-76
2022/12/17 14:37:31;;;;;;;133.45;61.50;;;;;;;;;;1044277;28;20024;-76
2022/12/17 14:38:03;;;;;;;160.73;70.68;;;;;;;;;;1047973;28;20058;-76
2022/12/17 14:38:34;;;;;;;145.52;61.40;;;;;;;;;;1048342;28;20027;-76
2022/12/17 14:39:14;;;;;;;140.23;57.88;;;;;;;;;;1047313;28;20027;-76
2022/12/17 14:39:46;;;;;;;126.18;57.08;;;;;;;;;;1047723;28;20487;-74
2022/12/17 14:40:17;;;;;;;135.25;59.40;;;;;;;;;;1048342;28;20040;-76
2022/12/17 14:40:47;;;;;;;136.00;61.50;;;;;;;;;;1048199;28;20063;-76
2022/12/17 14:42:28;;;;;;;129.77;60.45;;;;;;;;;;1047132;28;20403;-76
2022/12/17 14:42:59;;;;;;;160.52;64.63;;;;;;;;;;1043697;28;20871;-76
2022/12/17 14:43:30;;;;;;;133.25;62.45;;;;;;;;;;1042819;28;20025;-76
2022/12/17 14:44:01;;;;;;;142.15;63.40;;;;;;;;;;1043321;28;20108;-76
2022/12/17 14:44:32;;;;;;;140.77;61.55;;;;;;;;;;1044167;28;20578;-76
2022/12/17 14:45:04;;;;;;;137.70;62.38;;;;;;;;;;1048292;28;20020;-76
2022/12/17 14:46:19;;;;;;;120.00;60.13;;;;;;;;;;1048134;28;20467;-76
2022/12/17 14:46:26;;;;;;;143.57;63.20;;;;;;;;;;1048108;28;20020;-76
2022/12/17 14:47:25;;;;;;;135.57;62.72;;;;;;;;;;1048125;28;20016;-76
2022/12/17 14:47:57;;;;;;;144.23;60.90;;;;;;;;;;1030799;28;20375;-76
2022/12/17 14:49:20;;;;;;;134.30;61.28;;;;;;;;;;1037344;28;20030;-76
2022/12/17 14:50:06;;;;;;;141.07;64.75;;;;;;;;;;1047609;28;20131;-76
2022/12/17 14:50:36;;;;;;;159.75;68.45;;;;;;;;;;1048270;28;20576;-74
2022/12/17 14:51:18;;;;;;;151.43;69.45;;;;;;;;;;1048135;28;20058;-74
2022/12/17 14:51:49;;;;;;;151.32;70.25;;;;;;;;;;1043265;28;20057;-74
2022/12/17 14:52:37;;;;;;;154.50;69.00;;;;;;;;;;1043749;28;20082;-76
2022/12/17 14:53:23;;;;;;;144.20;66.28;;;;;;;;;;1042890;28;20017;-76
2022/12/17 14:54:16;;;;;;;134.50;65.07;;;;;;;;;;1047926;28;21221;-76
2022/12/17 14:54:46;;;;;;;139.93;64.90;;;;;;;;;;1042620;28;20013;-76
2022/12/17 14:55:24;;;;;;;152.57;71.78;;;;;;;;;;1043879;28;20388;-76
2022/12/17 14:55:56;;;;;;;155.57;67.18;;;;;;;;;;1042675;28;20025;-76
2022/12/17 14:56:28;;;;;;;166.75;70.47;;;;;;;;;;1043886;28;20028;-76
2022/12/17 14:56:59;;;;;;;161.75;72.82;;;;;;;;;;1042679;28;20587;-76
2022/12/17 14:57:29;;;;;;;171.43;68.72;;;;;;;;;;1043761;28;20053;-76
2022/12/17 14:58:25;;;;;;;174.40;68.75;;;;;;;;;;1039341;28;20100;-76
2022/12/17 14:58:56;;;;;;;183.02;78.15;;;;;;;;;;1038582;28;20412;-76
2022/12/17 14:59:36;;;;;;;200.52;84.82;;;;;;;;;;1043711;28;20055;-76
2022/12/17 15:00:07;;;;;;;184.73;80.88;;;;;;;;;;1047703;28;20695;-76
2022/12/17 15:00:40;;;;;;;179.32;76.53;;;;;;;;;;1047199;28;20027;-76
2022/12/17 15:01:12;;;;;;;188.82;78.40;;;;;;;;;;1048149;28;20502;-76
2022/12/17 15:01:42;;;;;;;184.38;76.18;;;;;;;;;;1048097;28;20525;-76
2022/12/17 15:02:19;;;;;;;194.00;79.40;;;;;;;;;;1048048;28;20028;-76
2022/12/17 15:02:51;;;;;;;201.02;80.55;;;;;;;;;;1043028;28;20024;-76
2022/12/17 15:03:28;;;;;;;198.18;84.93;;;;;;;;;;1043772;28;20021;-76
2022/12/17 15:04:01;;;;;;;190.98;81.00;;;;;;;;;;1042939;28;20070;-76
2022/12/17 15:04:32;;;;;;;222.00;95.00;;;;;;;;;;1045219;28;20033;-76
2022/12/17 15:05:03;;;;;;;256.50;92.50;;;;;;;;;;1047910;28;20505;-76
2022/12/17 15:05:34;;;;;;;224.80;89.82;;;;;;;;;;1047076;28;20024;-76
2022/12/17 15:06:08;;;;;;;227.25;92.85;;;;;;;;;;1047956;28;20025;-76
2022/12/17 15:06:39;;;;;;;241.30;95.57;;;;;;;;;;1043654;28;20078;-76
2022/12/17 15:07:13;;;;;;;252.68;96.47;;;;;;;;;;1043578;28;20139;-76
2022/12/17 15:07:43;;;;;;;259.75;95.15;;;;;;;;;;1041522;28;20020;-76
2022/12/17 15:08:14;;;;;;;215.50;89.88;;;;;;;;;;1041647;28;20484;-76
2022/12/17 15:08:48;;;;;;;236.02;91.00;;;;;;;;;;1043792;28;20040;-76
2022/12/17 15:09:19;;;;;;;302.02;116.20;;;;;;;;;;1043304;28;20523;-76
2022/12/17 15:09:51;;;;;;;281.67;119.50;;;;;;;;;;1047742;28;20024;-76
2022/12/17 15:10:22;;;;;;;269.25;108.97;;;;;;;;;;1048001;28;20024;-76
2022/12/17 15:10:52;;;;;;;249.77;100.90;;;;;;;;;;1043746;28;20021;-76
2022/12/17 15:11:23;;;;;;;242.70;100.80;;;;;;;;;;1043730;28;20020;-76
2022/12/17 15:11:54;;;;;;;219.00;89.40;;;;;;;;;;1043512;28;20021;-76
2022/12/17 15:12:24;;;;;;;214.80;84.10;;;;;;;;;;1043826;28;20033;-76
2022/12/17 15:12:55;;;;;;;199.90;80.75;;;;;;;;;;1043588;28;20025;-76
2022/12/17 15:13:26;;;;;;;220.30;85.57;;;;;;;;;;1043792;28;20021;-76
2022/12/17 15:13:57;;;;;;;201.27;87.57;;;;;;;;;;1043447;28;20057;-76
2022/12/17 15:14:27;;;;;;;238.10;95.60;;;;;;;;;;1041279;28;20036;-76
2022/12/17 15:14:58;;;;;;;209.05;91.07;;;;;;;;;;1043645;28;20327;-76
2022/12/17 15:15:28;;;;;;;201.27;85.68;;;;;;;;;;1043817;28;20028;-76
2022/12/17 15:15:59;;;;;;;219.52;93.35;;;;;;;;;;1043452;28;20021;-74
2022/12/17 15:16:30;;;;;;;205.95;88.35;;;;;;;;;;1048136;28;20024;-75
2022/12/17 15:17:00;;;;;;;219.15;91.07;;;;;;;;;;1048150;28;20392;-77
2022/12/17 15:17:31;;;;;;;214.88;91.75;;;;;;;;;;1043476;28;20020;-77
2022/12/17 15:18:01;;;;;;;214.43;86.47;;;;;;;;;;1043559;28;20070;-77
2022/12/17 15:18:32;;;;;;;224.18;96.25;;;;;;;;;;1043857;28;20025;-77
2022/12/17 15:19:03;;;;;;;221.77;92.15;;;;;;;;;;1043815;28;20021;-76
2022/12/17 15:19:33;;;;;;;228.25;98.72;;;;;;;;;;1043449;28;20051;-76
2022/12/17 15:20:04;;;;;;;231.20;102.80;;;;;;;;;;1043601;28;20496;-76
2022/12/17 15:20:35;;;;;;;248.35;103.95;;;;;;;;;;1043762;28;20388;-76
2022/12/17 15:21:05;;;;;;;223.52;102.22;;;;;;;;;;1044996;28;20017;-76
2022/12/17 15:21:36;;;;;;;234.50;103.43;;;;;;;;;;1046581;28;20020;-76
2022/12/17 15:22:16;;;;;;;229.02;105.40;;;;;;;;;;1046030;28;20021;-75
2022/12/17 15:22:46;;;;;;;;;;;;;;;;;;1041952;28;20025;-76
2022/12/17 15:23:18;;;;;;;227.55;97.45;;;;;;;;;;1042073;28;19909;-74
2022/12/17 15:23:48;;;;;;;230.00;93.35;;;;;;;;;;1043311;28;20029;-76
2022/12/17 15:24:20;;;;;;;213.80;93.65;;;;;;;;;;1043724;28;20063;-76
2022/12/17 15:24:50;;;;;;;212.90;92.63;;;;;;;;;;1039294;28;20029;-76
2022/12/17 15:25:21;;;;;;;203.48;87.78;;;;;;;;;;1039789;28;20021;-76
2022/12/17 15:25:52;;;;;;;197.30;84.72;;;;;;;;;;1042377;28;20500;-76
2022/12/17 15:26:23;;;;;;;202.23;86.38;;;;;;;;;;1043858;28;21268;-76
2022/12/17 15:26:53;;;;;;;205.65;90.50;;;;;;;;;;1043246;28;20027;-76
2022/12/17 15:27:24;;;;;;;195.80;86.72;;;;;;;;;;1043714;28;20029;-76
2022/12/17 15:27:54;;;;;;;221.57;97.70;;;;;;;;;;1043293;28;20068;-76
2022/12/17 15:28:25;;;;;;;213.07;94.78;;;;;;;;;;1043726;28;20120;-76
2022/12/17 15:28:55;;;;;;;218.02;90.25;;;;;;;;;;1048139;28;20016;-76
2022/12/17 15:29:27;;;;;;;218.77;93.43;;;;;;;;;;1048050;28;20117;-76
2022/12/17 15:29:58;;;;;;;211.38;92.75;;;;;;;;;;1047769;28;20062;-76
2022/12/17 15:30:28;;;;;;;192.88;93.75;;;;;;;;;;1048235;28;20423;-76
2022/12/17 15:30:59;;;;;;;201.75;89.20;;;;;;;;;;1047977;28;20052;-76
2022/12/17 15:31:29;;;;;;;210.65;91.40;;;;;;;;;;1048108;28;20032;-76
2022/12/17 15:32:01;;;;;;;198.15;89.20;;;;;;;;;;1043319;28;20032;-76
2022/12/17 15:32:31;;;;;;;203.13;87.80;;;;;;;;;;1043566;28;20029;-76
2022/12/17 15:33:02;;;;;;;188.60;85.13;;;;;;;;;;1043471;28;20074;-76
2022/12/17 15:33:33;;;;;;;181.77;81.40;;;;;;;;;;1043462;28;20029;-76
2022/12/17 15:34:03;;;;;;;194.45;87.13;;;;;;;;;;1044390;28;20020;-76
2022/12/17 15:34:34;;;;;;;199.35;85.90;;;;;;;;;;1048564;28;20032;-76
2022/12/17 15:35:05;;;;;;;194.65;84.35;;;;;;;;;;1043596;28;20552;-76
2022/12/17 15:35:36;;;;;;;183.02;80.45;;;;;;;;;;1043587;28;20518;-76
2022/12/17 15:36:07;;;;;;;190.70;81.07;;;;;;;;;;1043196;28;20435;-76
2022/12/17 15:36:37;;;;;;;182.38;81.03;;;;;;;;;;1042944;28;20017;-76
2022/12/17 15:37:08;;;;;;;153.80;69.22;;;;;;;;;;1043423;28;20020;-76
2022/12/17 15:37:38;;;;;;;161.05;73.25;;;;;;;;;;1043340;28;20020;-76
2022/12/17 15:38:10;;;;;;;151.48;68.15;;;;;;;;;;1043633;28;20025;-76
2022/12/17 15:38:41;;;;;;;145.48;69.15;;;;;;;;;;1043262;28;20016;-77
2022/12/17 15:39:11;;;;;;;143.68;66.28;;;;;;;;;;1048156;28;20031;-75
2022/12/17 15:39:42;;;;;;;156.18;65.88;;;;;;;;;;1047957;28;20024;-76
2022/12/17 15:40:13;;;;;;;145.65;69.72;;;;;;;;;;1043250;28;20025;-76
2022/12/17 15:40:43;;;;;;;144.13;68.68;;;;;;;;;;1044445;28;20025;-75
2022/12/17 15:43:11;;;;;;;137.75;68.32;;;;;;;;;;1048015;28;20020;-75
2022/12/17 15:43:41;;;;;;;155.25;70.50;;;;;;;;;;1047939;28;20055;-75
2022/12/17 15:44:12;;;;;;;149.82;70.25;;;;;;;;;;1048002;28;20024;-75
2022/12/17 15:44:42;;;;;;;160.13;70.28;;;;;;;;;;1047922;28;20039;-75
2022/12/17 15:45:13;;;;;;;139.93;68.57;;;;;;;;;;1048125;28;20063;-75
2022/12/17 15:45:45;;;;;;;155.25;68.53;;;;;;;;;;1046776;28;20028;-75
2022/12/17 15:46:15;;;;;;;159.57;71.82;;;;;;;;;;1048023;28;20029;-76
2022/12/17 15:46:46;;;;;;;159.30;72.38;;;;;;;;;;1043602;28;20452;-75
2022/12/17 15:47:16;;;;;;;152.15;70.45;;;;;;;;;;1043511;28;20120;-75
2022/12/17 15:47:47;;;;;;;149.45;71.43;;;;;;;;;;1043269;28;20115;-75
2022/12/17 15:48:19;;;;;;;154.02;67.25;;;;;;;;;;1043691;28;20025;-76
2022/12/17 15:48:49;;;;;;;153.27;65.13;;;;;;;;;;1043967;28;20104;-75
2022/12/17 15:49:20;;;;;;;149.98;67.57;;;;;;;;;;1048062;28;20098;-76
2022/12/17 15:49:51;;;;;;;128.93;60.53;;;;;;;;;;1047586;28;20042;-75
2022/12/17 15:50:21;;;;;;;129.13;63.67;;;;;;;;;;1047858;28;20055;-75
2022/12/17 15:50:52;;;;;;;144.27;64.80;;;;;;;;;;1048083;28;20063;-75
2022/12/17 15:51:22;;;;;;;135.52;63.45;;;;;;;;;;1048025;28;20024;-76
2022/12/17 15:51:53;;;;;;;153.55;65.95;;;;;;;;;;1047704;28;20024;-75
2022/12/17 15:52:23;;;;;;;131.27;62.45;;;;;;;;;;1047981;28;20027;-75
2022/12/17 15:52:54;;;;;;;142.48;64.82;;;;;;;;;;1048042;28;20024;-75
2022/12/17 15:53:25;;;;;;;129.90;62.08;;;;;;;;;;1048084;28;20074;-76
2022/12/17 15:53:55;;;;;;;142.35;62.22;;;;;;;;;;1047647;28;20028;-75
2022/12/17 15:54:26;;;;;;;129.25;63.70;;;;;;;;;;1043347;28;20021;-75
2022/12/17 15:54:56;;;;;;;150.35;67.95;;;;;;;;;;1043471;28;20024;-76
2022/12/17 15:55:27;;;;;;;121.43;57.83;;;;;;;;;;1043447;28;20097;-76
2022/12/17 15:55:59;;;;;;;138.43;60.45;;;;;;;;;;1043253;28;20036;-76
2022/12/17 15:56:29;;;;;;;138.35;64.57;;;;;;;;;;1048088;28;20027;-76
2022/12/17 15:57:00;;;;;;;140.18;62.58;;;;;;;;;;1048008;28;20023;-76
2022/12/17 15:57:31;;;;;;;145.43;65.70;;;;;;;;;;1047987;28;20074;-76
2022/12/17 15:58:01;;;;;;;161.35;67.28;;;;;;;;;;1043285;28;20440;-76
2022/12/17 15:58:32;;;;;;;166.20;69.13;;;;;;;;;;1041636;28;20028;-75
2022/12/17 15:59:02;;;;;;;175.00;75.75;;;;;;;;;;1041243;28;20107;-76
2022/12/17 15:59:33;;;;;;;187.00;78.80;;;;;;;;;;1041122;28;20057;-76
2022/12/17 16:00:04;;;;;;;172.82;75.95;;;;;;;;;;1043613;28;20029;-75
2022/12/17 16:00:35;;;;;;;159.55;69.05;;;;;;;;;;1045865;28;20024;-75
2022/12/17 16:01:05;;;;;;;155.43;68.53;;;;;;;;;;1043361;28;20025;-75
2022/12/17 16:01:36;;;;;;;168.18;73.72;;;;;;;;;;1043420;28;20067;-75
2022/12/17 16:02:08;;;;;;;181.60;72.55;;;;;;;;;;1043269;28;20074;-75
2022/12/17 16:02:39;;;;;;;160.43;76.00;;;;;;;;;;1042634;28;20025;-75
2022/12/17 16:03:09;;;;;;;176.55;80.13;;;;;;;;;;1043837;28;20021;-75
2022/12/17 16:03:40;;;;;;;174.05;77.47;;;;;;;;;;1047834;28;20483;-75
2022/12/17 16:04:10;;;;;;;179.00;73.78;;;;;;;;;;1047865;28;20016;-74
2022/12/17 16:04:41;;;;;;;173.70;76.53;;;;;;;;;;1048013;28;20081;-74
2022/12/17 16:05:12;;;;;;;190.10;77.43;;;;;;;;;;1043376;28;20025;-74
2022/12/17 16:05:42;;;;;;;180.30;76.90;;;;;;;;;;1041204;28;20021;-74
2022/12/17 16:06:13;;;;;;;183.27;76.22;;;;;;;;;;1041200;28;20152;-75
2022/12/17 16:06:43;;;;;;;166.70;71.65;;;;;;;;;;1041413;28;20036;-75
2022/12/17 16:07:15;;;;;;;179.90;76.88;;;;;;;;;;1039535;28;20107;-75
2022/12/17 16:07:45;;;;;;;171.00;74.47;;;;;;;;;;1043239;28;20055;-75
2022/12/17 16:08:16;;;;;;;165.18;75.03;;;;;;;;;;1043508;28;20581;-74
2022/12/17 16:08:46;;;;;;;171.43;68.82;;;;;;;;;;1043985;28;20017;-75
2022/12/17 16:09:17;;;;;;;164.73;69.68;;;;;;;;;;1048013;28;20024;-75
2022/12/17 16:09:47;;;;;;;186.88;79.57;;;;;;;;;;1047614;28;20035;-75
2022/12/17 16:10:18;;;;;;;185.02;74.45;;;;;;;;;;1048346;28;20478;-75
2022/12/17 16:10:49;;;;;;;146.75;69.90;;;;;;;;;;1048357;28;20445;-75
2022/12/17 16:11:19;;;;;;;177.52;76.78;;;;;;;;;;1048236;28;20013;-75
2022/12/17 16:11:53;;;;;;;168.25;76.45;;;;;;;;;;1048017;28;20149;-75
2022/12/17 16:12:24;;;;;;;179.52;76.25;;;;;;;;;;1047184;28;20492;-75
2022/12/17 16:12:54;;;;;;;169.63;74.40;;;;;;;;;;1048455;28;20130;-75
2022/12/17 16:13:25;;;;;;;163.60;75.32;;;;;;;;;;1047996;28;20111;-75
2022/12/17 16:13:55;;;;;;;169.32;74.65;;;;;;;;;;1048024;28;20047;-75
2022/12/17 16:14:26;;;;;;;158.75;71.70;;;;;;;;;;1043703;28;20084;-75
2022/12/17 16:14:57;;;;;;;178.50;72.80;;;;;;;;;;1043195;28;20024;-75
2022/12/17 16:15:27;;;;;;;164.52;70.32;;;;;;;;;;1043909;28;20037;-75
2022/12/17 16:15:59;;;;;;;175.93;74.43;;;;;;;;;;1042221;28;20032;-75
2022/12/17 16:16:30;;;;;;;159.73;68.82;;;;;;;;;;1046014;28;20028;-75
2022/12/17 16:17:00;;;;;;;191.82;72.15;;;;;;;;;;1049836;28;20016;-75
2022/12/17 16:17:31;;;;;;;178.93;77.70;;;;;;;;;;1049105;28;20020;-75
2022/12/17 16:18:01;;;;;;;199.02;70.72;;;;;;;;;;1049671;28;20069;-75
2022/12/17 16:18:32;;;;;;;160.93;68.78;;;;;;;;;;1049869;28;20016;-75
2022/12/17 16:19:03;;;;;;;179.35;73.40;;;;;;;;;;1044256;28;20048;-75
2022/12/17 16:19:33;;;;;;;180.25;78.13;;;;;;;;;;1045981;28;20025;-75
2022/12/17 16:20:04;;;;;;;164.07;68.38;;;;;;;;;;1042231;28;20036;-75
2022/12/17 16:20:35;;;;;;;180.20;71.10;;;;;;;;;;1042449;28;20021;-74
2022/12/17 16:21:07;;;;;;;186.63;77.82;;;;;;;;;;1043397;28;20025;-74
2022/12/17 16:21:37;;;;;;;183.27;72.72;;;;;;;;;;1043871;28;20464;-74
2022/12/17 16:22:08;;;;;;;193.50;78.22;;;;;;;;;;1047792;28;20024;-75